Time;durP1;ratioP1;P1;durP2;ratioP2;P2;SDS_P1;SDS_P2;PMS_P1;PMS_P2;Temp;Humidity;BMP_temperature;BMP_pressure;BME280_temperature;BME280_humidity;BME280_pressure;Samples;Min_cycle;Max_cycle;Signal;HPM_P1;HPM_P2
2021/07/08 00:00:21;;;;;;;19.27;9.93;;;16.20;99.90;;;;;;5111496;28;20278;-81
2021/07/08 00:02:48;;;;;;;20.67;10.83;;;16.00;99.90;;;;;;5111149;28;20229;-81
2021/07/08 00:05:17;;;;;;;23.77;11.17;;;16.00;99.90;;;;;;5111308;28;20195;-80
2021/07/08 00:07:46;;;;;;;21.70;11.90;;;16.00;99.90;;;;;;5112420;28;20196;-80
2021/07/08 00:10:15;;;;;;;15.73;10.43;;;16.10;99.90;;;;;;5112574;28;20186;-81
2021/07/08 00:12:42;;;;;;;23.57;11.97;;;16.20;99.90;;;;;;5112836;28;20289;-81
2021/07/08 00:15:11;;;;;;;27.33;12.80;;;16.40;99.90;;;;;;5112910;28;20652;-82
2021/07/08 00:17:38;;;;;;;28.70;13.10;;;16.60;99.90;;;;;;5112825;28;20237;-81
2021/07/08 00:20:08;;;;;;;22.27;12.30;;;16.70;99.90;;;;;;5112898;28;20222;-79
2021/07/08 00:22:36;;;;;;;28.00;12.30;;;16.70;99.90;;;;;;5113604;28;20723;-80
2021/07/08 00:25:05;;;;;;;26.37;12.70;;;16.60;99.90;;;;;;5113543;28;20252;-79
2021/07/08 00:27:32;;;;;;;23.30;11.27;;;16.60;99.90;;;;;;5113123;28;20695;-80
2021/07/08 00:29:59;;;;;;;23.23;11.40;;;16.70;99.90;;;;;;5113132;28;20273;-81
2021/07/08 00:32:26;;;;;;;21.27;11.30;;;16.70;99.90;;;;;;5113386;28;20203;-79
2021/07/08 00:34:53;;;;;;;18.97;10.77;;;16.80;99.90;;;;;;5113612;28;20190;-81
2021/07/08 00:37:20;;;;;;;24.07;10.27;;;16.80;99.90;;;;;;5113583;28;20267;-81
2021/07/08 00:39:47;;;;;;;24.23;10.47;;;16.80;99.90;;;;;;5114469;28;20749;-80
2021/07/08 00:42:15;;;;;;;26.07;10.70;;;16.80;99.90;;;;;;5116912;28;20281;-80
2021/07/08 00:44:42;;;;;;;22.53;10.17;;;16.80;99.90;;;;;;5116855;28;20284;-80
2021/07/08 00:47:09;;;;;;;23.83;10.27;;;16.70;99.90;;;;;;5116718;28;20225;-80
2021/07/08 00:49:36;;;;;;;16.70;10.07;;;16.70;99.90;;;;;;5116376;28;20195;-81
2021/07/08 00:52:03;;;;;;;20.40;9.80;;;16.50;99.90;;;;;;5115933;28;20601;-81
2021/07/08 00:54:30;;;;;;;25.07;9.70;;;16.50;99.90;;;;;;5115338;28;20611;-81
2021/07/08 00:56:57;;;;;;;18.77;9.17;;;16.60;99.90;;;;;;5115340;28;20281;-79
2021/07/08 00:59:26;;;;;;;15.40;8.73;;;16.60;99.90;;;;;;5116180;28;20279;-81
2021/07/08 01:01:54;;;;;;;15.00;8.60;;;16.60;99.90;;;;;;5116554;28;20207;-79
2021/07/08 01:04:21;;;;;;;18.47;8.60;;;16.60;99.90;;;;;;5115847;28;20286;-79
2021/07/08 01:06:54;;;;;;;14.93;8.17;;;16.50;99.90;;;;;;5115856;28;20190;-82
2021/07/08 01:09:20;;;;;;;15.20;8.43;;;16.40;99.90;;;;;;5116035;28;20246;-81
2021/07/08 01:11:48;;;;;;;15.87;8.67;;;16.30;99.90;;;;;;5115810;28;20218;-81
2021/07/08 01:14:15;;;;;;;17.40;8.50;;;16.30;99.90;;;;;;5116077;28;20198;-79
2021/07/08 01:16:44;;;;;;;18.40;9.07;;;16.40;99.90;;;;;;5116024;28;20285;-80
2021/07/08 01:19:11;;;;;;;14.17;8.43;;;16.40;99.90;;;;;;5115627;28;20288;-80
2021/07/08 01:21:39;;;;;;;16.30;8.40;;;16.40;99.90;;;;;;5115519;28;20709;-80
2021/07/08 01:24:07;;;;;;;18.80;8.07;;;16.30;99.90;;;;;;5115793;28;20237;-81
2021/07/08 01:26:34;;;;;;;13.83;8.30;;;16.20;99.90;;;;;;5115440;28;20198;-80
2021/07/08 01:29:01;;;;;;;16.47;7.77;;;16.10;99.90;;;;;;5115487;28;20336;-79
2021/07/08 01:31:27;;;;;;;15.70;7.60;;;16.00;99.90;;;;;;5115571;28;20226;-81
2021/07/08 01:33:55;;;;;;;18.07;8.83;;;15.90;99.90;;;;;;5115375;28;20290;-80
2021/07/08 01:36:22;;;;;;;22.17;9.10;;;16.00;99.90;;;;;;5115784;28;20204;-80
2021/07/08 01:38:50;;;;;;;22.00;8.53;;;15.90;99.90;;;;;;5115224;28;20224;-80
2021/07/08 01:41:18;;;;;;;12.57;7.67;;;15.80;99.90;;;;;;5115127;28;20336;-80
2021/07/08 01:43:45;;;;;;;14.73;7.87;;;15.80;99.90;;;;;;5114591;28;20202;-81
2021/07/08 01:46:15;;;;;;;20.80;7.90;;;15.80;99.90;;;;;;5115297;28;20728;-79
2021/07/08 01:48:43;;;;;;;17.67;7.63;;;15.70;99.90;;;;;;5114991;28;20282;-81
2021/07/08 01:51:25;;;;;;;18.13;7.50;;;15.70;99.90;;;;;;5114090;28;20697;-80
2021/07/08 01:53:53;;;;;;;19.73;7.33;;;15.70;99.90;;;;;;5114749;28;20244;-81
2021/07/08 01:56:21;;;;;;;15.63;7.60;;;15.80;99.90;;;;;;5114663;28;20862;-80
2021/07/08 01:58:48;;;;;;;14.07;7.33;;;15.80;99.90;;;;;;5114825;28;20198;-79
2021/07/08 02:01:15;;;;;;;16.17;7.97;;;15.80;99.90;;;;;;5114701;28;20582;-80
2021/07/08 02:03:42;;;;;;;15.17;8.30;;;15.90;99.90;;;;;;5114478;28;20638;-81
2021/07/08 02:06:09;;;;;;;21.13;8.27;;;16.00;99.90;;;;;;5114627;28;20201;-80
2021/07/08 02:08:36;;;;;;;13.90;7.77;;;16.00;99.90;;;;;;5114336;28;20674;-80
2021/07/08 02:11:05;;;;;;;18.60;8.73;;;16.10;99.90;;;;;;5114726;28;20289;-80
2021/07/08 02:13:32;;;;;;;23.83;8.80;;;16.20;99.90;;;;;;5114272;28;20629;-81
2021/07/08 02:15:59;;;;;;;17.63;8.73;;;16.30;99.90;;;;;;5114452;28;20289;-81
2021/07/08 02:18:26;;;;;;;12.10;7.97;;;16.30;99.90;;;;;;5114336;28;20619;-80
2021/07/08 02:20:53;;;;;;;15.60;8.57;;;16.40;99.90;;;;;;5114296;28;20253;-80
2021/07/08 02:23:20;;;;;;;16.07;7.50;;;16.40;99.90;;;;;;5114371;28;20202;-79
2021/07/08 02:25:47;;;;;;;13.73;8.23;;;16.60;99.90;;;;;;5114414;28;20245;-80
2021/07/08 02:28:15;;;;;;;13.83;8.00;;;16.60;99.90;;;;;;5114100;28;20200;-81
2021/07/08 02:30:42;;;;;;;12.83;7.60;;;16.70;99.90;;;;;;5114160;28;20284;-80
2021/07/08 02:33:09;;;;;;;13.43;7.23;;;16.70;99.90;;;;;;5114077;28;20293;-79
2021/07/08 02:35:40;;;;;;;16.07;7.53;;;16.90;99.90;;;;;;5113702;28;20304;-80
2021/07/08 02:38:07;;;;;;;11.73;7.53;;;16.80;99.90;;;;;;5113660;28;20224;-81
2021/07/08 02:40:38;;;;;;;13.50;6.97;;;16.80;99.90;;;;;;5113823;28;20308;-81
2021/07/08 02:43:06;;;;;;;15.40;7.57;;;16.80;99.90;;;;;;5113733;28;20613;-81
2021/07/08 02:45:37;;;;;;;18.17;7.40;;;16.90;99.90;;;;;;5113799;28;20198;-80
2021/07/08 02:48:06;;;;;;;16.63;6.37;;;16.90;99.90;;;;;;5113643;28;20288;-80
2021/07/08 02:50:34;;;;;;;11.33;6.70;;;16.90;99.90;;;;;;5113934;28;20277;-80
2021/07/08 02:53:03;;;;;;;11.60;6.77;;;16.70;99.90;;;;;;5113676;28;20285;-80
2021/07/08 02:55:31;;;;;;;13.20;7.67;;;16.50;99.90;;;;;;5113620;28;20201;-82
2021/07/08 02:57:58;;;;;;;17.07;8.27;;;16.60;99.90;;;;;;5113740;28;20480;-81
2021/07/08 03:00:26;;;;;;;12.83;7.97;;;16.40;99.90;;;;;;5113540;28;20218;-80
2021/07/08 03:02:54;;;;;;;12.40;7.50;;;16.50;99.90;;;;;;5113272;28;20194;-80
2021/07/08 03:05:21;;;;;;;14.43;7.50;;;16.60;99.90;;;;;;5113083;28;20196;-81
2021/07/08 03:07:48;;;;;;;16.37;8.00;;;16.50;99.90;;;;;;5113189;28;20566;-80
2021/07/08 03:10:18;;;;;;;12.57;7.70;;;16.60;99.90;;;;;;5113191;28;20224;-79
2021/07/08 03:12:45;;;;;;;11.10;7.67;;;16.60;99.90;;;;;;5113392;28;20268;-81
2021/07/08 03:15:13;;;;;;;12.70;7.57;;;16.70;99.90;;;;;;5113224;28;20286;-80
2021/07/08 03:17:41;;;;;;;15.03;7.37;;;16.70;99.90;;;;;;5113076;28;20240;-81
2021/07/08 03:20:12;;;;;;;16.97;8.40;;;16.70;99.90;;;;;;5112937;28;20201;-80
2021/07/08 03:22:39;;;;;;;14.70;7.57;;;16.70;99.90;;;;;;5113345;28;20189;-82
2021/07/08 03:25:08;;;;;;;19.27;8.70;;;16.60;99.90;;;;;;5113248;28;20201;-80
2021/07/08 03:27:35;;;;;;;17.37;8.77;;;16.60;99.90;;;;;;5112875;28;20225;-80
2021/07/08 03:30:04;;;;;;;16.00;8.37;;;16.50;99.90;;;;;;5112943;28;20662;-81
2021/07/08 03:32:31;;;;;;;15.50;8.07;;;16.40;99.90;;;;;;5112986;28;20228;-81
2021/07/08 03:34:57;;;;;;;17.77;8.63;;;16.30;99.90;;;;;;5113152;28;20237;-81
2021/07/08 03:37:26;;;;;;;21.77;8.97;;;16.20;99.90;;;;;;5112966;28;20198;-81
2021/07/08 03:39:53;;;;;;;27.43;11.00;;;16.20;99.90;;;;;;5112938;28;20285;-81
2021/07/08 03:42:20;;;;;;;17.90;11.03;;;16.20;99.90;;;;;;5112759;28;20222;-81
2021/07/08 03:44:47;;;;;;;18.93;10.73;;;16.10;99.90;;;;;;5112683;28;20677;-81
2021/07/08 03:47:14;;;;;;;18.13;10.37;;;16.00;99.90;;;;;;5113094;28;20282;-80
2021/07/08 03:49:41;;;;;;;17.83;10.43;;;15.90;99.90;;;;;;5112788;28;20229;-82
2021/07/08 03:52:08;;;;;;;21.73;10.73;;;15.80;99.90;;;;;;5112790;28;20226;-81
2021/07/08 03:54:36;;;;;;;18.23;10.57;;;15.80;99.90;;;;;;5112599;28;20225;-81
2021/07/08 03:57:04;;;;;;;21.10;10.33;;;15.80;99.90;;;;;;5112719;28;20206;-81
2021/07/08 03:59:31;;;;;;;24.10;10.60;;;15.80;99.90;;;;;;5112736;28;20289;-80
2021/07/08 04:01:58;;;;;;;16.00;10.27;;;15.90;99.90;;;;;;5112769;28;20312;-80
2021/07/08 04:04:25;;;;;;;20.53;10.57;;;15.90;99.90;;;;;;5112671;28;20724;-80
2021/07/08 04:06:52;;;;;;;17.87;9.17;;;16.00;99.90;;;;;;5112540;28;20297;-81
2021/07/08 04:09:19;;;;;;;16.90;8.97;;;16.00;99.90;;;;;;5112467;28;20645;-81
2021/07/08 04:11:47;;;;;;;13.73;8.47;;;16.10;99.90;;;;;;5112831;28;20613;-81
2021/07/08 04:14:14;;;;;;;19.23;10.70;;;16.10;99.90;;;;;;5112840;28;20213;-81
2021/07/08 04:16:41;;;;;;;18.40;10.27;;;16.20;99.90;;;;;;5116447;28;20645;-81
2021/07/08 04:19:08;;;;;;;24.20;11.30;;;16.30;99.90;;;;;;5115989;28;20222;-80
2021/07/08 04:21:34;;;;;;;19.47;9.40;;;16.40;99.90;;;;;;5116397;28;20300;-82
2021/07/08 04:24:01;;;;;;;15.73;8.93;;;16.60;99.90;;;;;;5116283;28;20208;-81
2021/07/08 04:26:28;;;;;;;17.63;9.23;;;16.80;99.90;;;;;;5116089;28;20649;-82
2021/07/08 04:28:57;;;;;;;18.70;9.33;;;16.90;99.90;;;;;;5116446;28;20281;-81
2021/07/08 04:31:24;;;;;;;14.57;8.30;;;17.00;99.90;;;;;;5116279;28;20214;-81
2021/07/08 04:33:51;;;;;;;17.43;7.87;;;17.10;99.90;;;;;;5116293;28;20198;-80
2021/07/08 04:36:18;;;;;;;10.27;6.83;;;17.20;99.90;;;;;;5118265;28;20208;-80
2021/07/08 04:38:47;;;;;;;13.57;6.50;;;17.50;99.90;;;;;;5115982;28;20198;-81
2021/07/08 04:41:18;;;;;;;21.53;7.33;;;17.70;99.90;;;;;;5115695;28;20279;-81
2021/07/08 04:43:44;;;;;;;13.33;7.40;;;18.00;99.90;;;;;;5115904;28;20302;-81
2021/07/08 04:46:13;;;;;;;12.07;6.73;;;18.20;99.90;;;;;;5115509;28;20552;-80
2021/07/08 04:48:40;;;;;;;13.60;6.80;;;18.50;99.90;;;;;;5118069;28;20656;-81
2021/07/08 04:51:09;;;;;;;13.30;6.20;;;18.70;99.90;;;;;;5116278;28;20286;-82
2021/07/08 04:53:37;;;;;;;10.67;5.97;;;18.90;99.90;;;;;;5116997;28;20205;-81
2021/07/08 04:56:04;;;;;;;16.60;6.33;;;19.10;99.90;;;;;;5120100;28;20218;-81
2021/07/08 04:58:31;;;;;;;11.97;5.70;;;19.20;99.90;;;;;;5118430;28;20209;-82
2021/07/08 05:00:58;;;;;;;15.83;5.57;;;19.40;99.90;;;;;;5115547;28;20225;-82
2021/07/08 05:03:26;;;;;;;11.90;5.67;;;19.40;99.90;;;;;;5115602;28;20194;-82
2021/07/08 05:05:53;;;;;;;11.90;5.50;;;19.40;99.90;;;;;;5115462;28;20286;-82
2021/07/08 05:08:20;;;;;;;12.03;5.87;;;19.30;99.90;;;;;;5115689;28;20194;-82
2021/07/08 05:10:47;;;;;;;18.67;6.97;;;19.30;99.90;;;;;;5115741;28;20544;-82
2021/07/08 05:13:14;;;;;;;12.43;6.33;;;19.40;99.90;;;;;;5115216;28;20201;-82
2021/07/08 05:15:41;;;;;;;11.10;6.23;;;19.60;99.90;;;;;;5114058;28;20252;-81
2021/07/08 05:18:07;;;;;;;14.47;6.17;;;19.70;99.90;;;;;;5113176;28;20202;-82
2021/07/08 05:20:37;;;;;;;15.13;6.73;;;19.70;99.90;;;;;;5114501;28;20633;-83
2021/07/08 05:23:12;;;;;;;14.23;6.60;;;20.10;99.90;;;;;;5130308;27;20629;-82
2021/07/08 05:25:39;;;;;;;12.50;5.50;;;20.50;99.90;;;;;;5135684;27;20224;-82
2021/07/08 05:28:06;;;;;;;11.38;5.95;;;21.40;99.90;;;;;;5135646;27;20190;-83
2021/07/08 05:30:36;;;;;;;13.18;5.45;;;22.80;99.90;;;;;;5135410;27;20689;-83
2021/07/08 05:33:03;;;;;;;9.80;5.40;;;24.60;99.90;;;;;;5135573;27;20284;-81
2021/07/08 05:35:30;;;;;;;12.40;5.10;;;26.50;99.90;;;;;;5135685;27;20288;-81
2021/07/08 05:37:58;;;;;;;11.68;5.10;;;28.10;99.90;;;;;;5135226;27;20194;-82
2021/07/08 05:40:25;;;;;;;10.05;5.00;;;29.00;99.90;;;;;;5134405;27;20277;-83
2021/07/08 05:42:52;;;;;;;12.70;5.65;;;29.70;99.90;;;;;;5132508;27;20305;-82
2021/07/08 05:45:21;;;;;;;11.73;5.50;;;30.90;99.90;;;;;;5113775;28;20221;-82
2021/07/08 05:47:48;;;;;;;10.30;5.18;;;31.80;99.90;;;;;;5114491;28;20282;-81
2021/07/08 05:50:15;;;;;;;15.68;6.03;;;31.60;99.90;;;;;;5113381;28;20304;-82
2021/07/08 05:52:42;;;;;;;16.13;5.88;;;31.30;99.90;;;;;;5109766;28;20741;-82
2021/07/08 05:55:12;;;;;;;14.57;6.00;;;30.40;99.90;;;;;;5113310;28;20226;-81
2021/07/08 05:57:46;;;;;;;16.25;5.60;;;30.80;99.90;;;;;;5113341;28;20565;-81
2021/07/08 06:00:14;;;;;;;12.02;5.60;;;32.10;99.90;;;;;;5114547;28;20274;-81
2021/07/08 06:02:41;;;;;;;13.65;6.00;;;32.70;99.90;;;;;;5113163;28;20226;-82
2021/07/08 06:05:09;;;;;;;9.85;5.40;;;33.60;99.90;;;;;;5093274;28;20534;-83
2021/07/08 06:07:37;;;;;;;13.93;5.25;;;33.90;99.90;;;;;;5093327;28;20230;-82
2021/07/08 06:10:05;;;;;;;13.20;5.53;;;34.40;99.90;;;;;;5113054;28;20202;-81
2021/07/08 06:12:34;;;;;;;13.73;5.38;;;34.80;99.90;;;;;;5111885;28;20241;-81
2021/07/08 06:15:01;;;;;;;15.43;6.10;;;34.60;99.90;;;;;;5111327;28;20273;-81
2021/07/08 06:17:28;;;;;;;13.07;6.03;;;34.30;99.90;;;;;;5113360;27;20733;-82
2021/07/08 06:19:57;;;;;;;17.23;5.57;;;34.20;99.90;;;;;;5112999;28;20289;-81
2021/07/08 06:22:24;;;;;;;13.00;5.82;;;33.70;99.90;;;;;;5113145;28;20214;-81
2021/07/08 06:24:51;;;;;;;13.73;5.97;;;33.20;99.90;;;;;;5112606;28;20237;-81
2021/07/08 06:27:18;;;;;;;12.43;5.70;;;33.00;99.90;;;;;;5113341;28;20194;-81
2021/07/08 06:29:46;;;;;;;19.65;6.22;;;33.20;99.90;;;;;;5112560;28;20202;-81
2021/07/08 06:32:17;;;;;;;19.08;5.70;;;33.80;99.90;;;;;;5112801;28;20317;-81
2021/07/08 06:34:44;;;;;;;12.82;5.65;;;34.30;99.90;;;;;;5113919;28;20186;-81
2021/07/08 06:37:11;;;;;;;11.05;5.88;;;34.30;99.90;;;;;;5113353;28;20281;-81
2021/07/08 06:39:38;;;;;;;15.05;5.85;;;34.10;99.90;;;;;;5113199;27;20201;-81
2021/07/08 06:42:05;;;;;;;12.23;5.78;;;34.10;99.90;;;;;;5113099;28;20304;-82
2021/07/08 06:44:32;;;;;;;9.68;6.82;;;34.30;99.90;;;;;;5113708;28;20220;-81
2021/07/08 06:47:02;;;;;;;16.77;6.88;;;33.40;99.90;;;;;;5113608;28;20281;-81
2021/07/08 06:49:30;;;;;;;14.00;5.90;;;33.60;99.90;;;;;;5113982;28;20229;-81
2021/07/08 06:51:57;;;;;;;15.95;6.30;;;34.30;99.90;;;;;;5113435;28;20194;-81
2021/07/08 06:54:24;;;;;;;12.55;6.18;;;34.90;99.90;;;;;;5113065;28;20226;-81
2021/07/08 06:56:51;;;;;;;16.80;6.15;;;35.30;99.90;;;;;;5113532;28;20198;-81
2021/07/08 06:59:18;;;;;;;13.32;5.80;;;35.70;99.90;;;;;;5113474;28;20645;-81
2021/07/08 07:01:45;;;;;;;15.65;5.40;;;35.70;99.90;;;;;;5113301;28;20378;-82
2021/07/08 07:04:13;;;;;;;13.55;5.65;;;35.40;99.90;;;;;;5113335;28;20281;-83
2021/07/08 07:06:40;;;;;;;11.38;5.90;;;35.30;99.90;;;;;;5112875;28;20214;-83
2021/07/08 07:09:07;;;;;;;12.65;4.97;;;34.60;99.90;;;;;;5113646;28;20198;-81
2021/07/08 07:11:34;;;;;;;16.80;6.07;;;33.80;99.90;;;;;;5113605;28;20259;-80
2021/07/08 07:14:01;;;;;;;12.38;5.75;;;32.90;99.90;;;;;;5113710;28;20277;-79
2021/07/08 07:16:28;;;;;;;18.20;6.20;;;32.60;99.90;;;;;;5113424;28;20665;-80
2021/07/08 07:18:55;;;;;;;10.18;4.93;;;33.40;99.90;;;;;;5110430;28;20204;-80
2021/07/08 07:21:23;;;;;;;11.45;5.00;;;33.90;99.90;;;;;;5112971;28;20740;-80
2021/07/08 07:23:50;;;;;;;12.13;4.90;;;34.00;99.90;;;;;;5113628;28;20277;-80
2021/07/08 07:26:21;;;;;;;10.18;5.07;;;33.50;99.90;;;;;;5113571;28;20323;-80
2021/07/08 07:28:48;;;;;;;8.50;4.13;;;33.60;99.90;;;;;;5112960;28;20210;-80
2021/07/08 07:31:16;;;;;;;9.80;5.03;;;32.60;99.70;;;;;;5111976;28;20284;-79
2021/07/08 07:33:43;;;;;;;10.00;4.80;;;31.10;99.90;;;;;;5112667;28;20601;-80
2021/07/08 07:36:11;;;;;;;10.40;4.90;;;30.00;99.90;;;;;;5113059;28;20277;-80
2021/07/08 07:38:43;;;;;;;13.60;5.60;;;29.40;99.90;;;;;;5112557;28;20196;-80
2021/07/08 07:41:10;;;;;;;12.82;5.47;;;29.00;99.90;;;;;;5112215;28;20200;-80
2021/07/08 07:43:37;;;;;;;11.98;5.03;;;29.00;99.90;;;;;;5112766;28;20253;-80
2021/07/08 07:46:04;;;;;;;8.63;4.18;;;29.20;99.90;;;;;;5112924;28;20335;-80
2021/07/08 07:48:33;;;;;;;10.13;5.07;;;29.20;99.90;;;;;;5112455;28;20198;-80
2021/07/08 07:51:00;;;;;;;8.25;5.15;;;29.10;99.90;;;;;;5115557;28;20207;-80
2021/07/08 07:53:27;;;;;;;8.57;4.97;;;29.00;99.90;;;;;;5116372;28;20201;-80
2021/07/08 07:55:55;;;;;;;6.72;4.47;;;29.60;99.90;;;;;;5117137;28;20558;-81
2021/07/08 07:58:22;;;;;;;7.72;4.25;;;30.30;99.90;;;;;;5116602;28;20226;-80
2021/07/08 08:00:49;;;;;;;8.25;4.75;;;29.90;99.90;;;;;;5115323;28;20210;-80
2021/07/08 08:03:16;;;;;;;9.68;5.55;;;30.50;99.90;;;;;;5115148;28;20783;-81
2021/07/08 08:05:54;;;;;;;8.80;5.57;;;29.70;99.90;;;;;;5115615;28;20735;-80
2021/07/08 08:08:30;;;;;;;10.40;5.30;;;28.70;99.90;;;;;;5114611;28;20289;-81
2021/07/08 08:10:59;;;;;;;10.05;6.22;;;28.80;99.90;;;;;;5115343;28;20198;-81
2021/07/08 08:13:27;;;;;;;13.55;5.45;;;28.70;99.90;;;;;;5114680;28;20190;-80
2021/07/08 08:15:55;;;;;;;8.65;6.13;;;28.80;99.90;;;;;;5115047;28;20614;-80
2021/07/08 08:18:25;;;;;;;11.18;6.05;;;27.80;99.90;;;;;;5115183;28;20620;-80
2021/07/08 08:20:53;;;;;;;8.32;5.53;;;27.40;99.90;;;;;;5115383;28;20190;-80
2021/07/08 08:23:21;;;;;;;11.10;6.57;;;27.50;99.90;;;;;;5115362;28;20226;-80
2021/07/08 08:25:48;;;;;;;11.50;6.25;;;27.40;99.90;;;;;;5114655;28;20643;-80
2021/07/08 08:28:16;;;;;;;9.65;6.60;;;27.50;99.90;;;;;;5131975;28;20288;-79
2021/07/08 08:30:44;;;;;;;12.88;6.25;;;28.60;99.90;;;;;;5132280;28;20282;-80
2021/07/08 08:33:11;;;;;;;10.18;6.15;;;29.50;99.90;;;;;;5113409;28;20204;-79
2021/07/08 08:35:39;;;;;;;9.23;5.65;;;30.20;99.90;;;;;;5114663;28;20198;-80
2021/07/08 08:38:06;;;;;;;12.07;5.97;;;30.60;99.90;;;;;;5115067;28;20198;-81
2021/07/08 08:40:35;;;;;;;8.68;5.32;;;31.80;99.90;;;;;;5114913;28;20628;-80
2021/07/08 08:43:02;;;;;;;10.77;5.50;;;32.50;99.90;;;;;;5113690;28;20321;-81
2021/07/08 08:45:30;;;;;;;8.48;4.95;;;33.20;99.90;;;;;;5113839;28;20682;-83
2021/07/08 08:48:05;;;;;;;8.52;5.28;;;34.40;99.90;;;;;;5115044;28;20574;-81
2021/07/08 08:50:34;;;;;;;8.82;5.57;;;36.40;99.90;;;;;;5114045;28;20626;-81
2021/07/08 08:53:02;;;;;;;7.60;5.18;;;38.30;99.90;;;;;;5114285;28;20513;-80
2021/07/08 08:55:29;;;;;;;8.32;4.70;;;40.10;99.90;;;;;;5114761;28;20277;-81
2021/07/08 08:57:56;;;;;;;9.45;5.55;;;41.30;95.60;;;;;;5114411;28;20229;-81
2021/07/08 09:00:46;;;;;;;8.35;5.15;;;38.80;92.50;;;;;;5074945;28;1102436;-80
2021/07/08 09:03:17;;;;;;;8.95;5.85;;;37.20;95.90;;;;;;5114216;28;20214;-80
2021/07/08 09:05:45;;;;;;;8.02;6.10;;;37.40;93.30;;;;;;5115579;28;20209;-80
2021/07/08 09:08:17;;;;;;;8.23;6.05;;;37.40;94.90;;;;;;5115384;28;20289;-80
2021/07/08 09:10:46;;;;;;;11.15;6.00;;;38.10;94.80;;;;;;5114475;27;20195;-80
2021/07/08 09:13:12;;;;;;;6.20;5.32;;;37.40;93.50;;;;;;5114660;28;20269;-80
2021/07/08 09:15:40;;;;;;;8.50;5.97;;;36.70;93.60;;;;;;5114624;28;20285;-81
2021/07/08 09:18:08;;;;;;;11.90;6.00;;;36.60;93.90;;;;;;5115074;28;20253;-81
2021/07/08 09:20:36;;;;;;;8.00;5.90;;;35.00;95.00;;;;;;5115260;28;20277;-80
2021/07/08 09:23:13;;;;;;;11.32;6.15;;;35.40;96.10;;;;;;5114221;28;20631;-81
2021/07/08 09:25:41;;;;;;;11.38;5.40;;;37.00;97.60;;;;;;5115200;28;20305;-79
2021/07/08 09:28:14;;;;;;;10.13;5.63;;;38.20;95.20;;;;;;5114036;28;20207;-79
2021/07/08 09:30:42;;;;;;;5.95;4.70;;;39.60;95.50;;;;;;5094953;28;20199;-80
2021/07/08 09:33:30;;;;;;;7.00;5.10;;;40.20;93.70;;;;;;5095061;28;20571;-81
2021/07/08 09:36:09;;;;;;;10.63;5.20;;;40.90;93.00;;;;;;5112708;28;20540;-80
2021/07/08 09:38:39;;;;;;;6.75;4.47;;;40.90;91.70;;;;;;5114794;28;20201;-81
2021/07/08 09:41:09;;;;;;;6.68;3.78;;;40.40;92.10;;;;;;5114459;27;20733;-81
2021/07/08 09:43:39;;;;;;;5.53;3.47;;;40.90;90.00;;;;;;5115374;28;20313;-80
2021/07/08 09:46:07;;;;;;;8.57;4.00;;;42.10;90.30;;;;;;5114683;28;20193;-81
2021/07/08 09:48:39;;;;;;;8.70;3.88;;;42.00;89.00;;;;;;5115012;28;20206;-81
2021/07/08 09:51:07;;;;;;;5.57;4.07;;;43.00;90.60;;;;;;5115066;28;20279;-79
2021/07/08 09:53:49;;;;;;;4.78;3.30;;;43.30;88.50;;;;;;5118364;28;20226;-82
2021/07/08 09:56:42;;;;;;;5.68;3.15;;;43.30;84.50;;;;;;5110672;28;20277;-82
2021/07/08 09:59:09;;;;;;;5.68;3.72;;;43.40;87.70;;;;;;5112367;28;20197;-80
2021/07/08 10:01:36;;;;;;;8.57;3.15;;;44.40;85.50;;;;;;5114843;28;20194;-81
2021/07/08 10:04:05;;;;;;;6.28;3.30;;;44.90;82.60;;;;;;5114275;28;20217;-81
2021/07/08 10:06:33;;;;;;;7.65;3.17;;;45.30;80.20;;;;;;5114006;28;20208;-77
2021/07/08 10:09:00;;;;;;;6.32;3.08;;;43.70;79.60;;;;;;5113484;28;20196;-85
2021/07/08 10:11:28;;;;;;;7.10;3.10;;;43.40;78.80;;;;;;5114305;28;20518;-81
2021/07/08 10:13:59;;;;;;;7.47;3.22;;;42.10;80.60;;;;;;5113922;28;20222;-81
2021/07/08 10:16:28;;;;;;;4.60;2.70;;;41.40;78.60;;;;;;5113674;28;20197;-82
2021/07/08 10:19:01;;;;;;;3.83;2.33;;;41.90;81.80;;;;;;5113936;28;20208;-82
2021/07/08 10:21:31;;;;;;;4.95;2.58;;;42.10;80.30;;;;;;5113797;28;20301;-82
2021/07/08 10:23:58;;;;;;;5.00;2.72;;;40.20;77.20;;;;;;5113942;28;20217;-81
2021/07/08 10:26:25;;;;;;;6.32;2.90;;;38.70;82.00;;;;;;5112288;28;20656;-81
2021/07/08 10:28:54;;;;;;;5.57;2.60;;;36.40;82.20;;;;;;5112611;28;20255;-81
2021/07/08 10:31:23;;;;;;;7.63;2.72;;;37.50;88.60;;;;;;5113156;28;20630;-81
2021/07/08 10:34:12;;;;;;;6.15;2.88;;;36.80;84.90;;;;;;5113290;28;20221;-81
2021/07/08 10:36:42;;;;;;;7.70;3.15;;;35.10;86.70;;;;;;5112132;28;20183;-82
2021/07/08 10:39:10;;;;;;;5.07;2.90;;;33.90;88.90;;;;;;5113665;28;20731;-81
2021/07/08 10:41:56;;;;;;;7.45;2.80;;;32.50;90.80;;;;;;5113014;27;20193;-80
2021/07/08 10:44:49;;;;;;;4.60;2.88;;;31.70;92.40;;;;;;5112508;27;20664;-81
2021/07/08 10:47:39;;;;;;;7.32;3.15;;;33.10;90.00;;;;;;5110444;28;20205;-82
2021/07/08 10:50:22;;;;;;;5.95;3.20;;;31.80;90.70;;;;;;5112785;28;20197;-80
2021/07/08 10:52:50;;;;;;;6.60;3.40;;;31.30;92.00;;;;;;5111428;28;20285;-80
2021/07/08 10:55:38;;;;;;;10.60;3.50;;;32.60;93.20;;;;;;5113662;27;20656;-81
2021/07/08 10:58:06;;;;;;;4.70;3.33;;;34.60;90.80;;;;;;5107634;27;20239;-80
2021/07/08 11:00:57;;;;;;;7.70;4.03;;;34.70;89.80;;;;;;5113775;28;20206;-81
2021/07/08 11:03:42;;;;;;;6.57;4.25;;;33.40;91.20;;;;;;5093433;28;20306;-80
2021/07/08 11:06:18;;;;;;;6.13;3.70;;;31.90;92.10;;;;;;5112786;28;20638;-79
2021/07/08 11:08:56;;;;;;;8.35;3.70;;;31.40;93.70;;;;;;5113916;28;20189;-80
2021/07/08 11:12:01;;;;;;;8.38;3.33;;;31.00;93.70;;;;;;5112735;28;20669;-80
2021/07/08 11:14:44;;;;;;;6.35;3.40;;;30.70;94.20;;;;;;5093278;28;20230;-80
2021/07/08 11:17:21;;;;;;;10.68;3.50;;;30.20;94.30;;;;;;5102810;28;20206;-80
2021/07/08 11:19:51;;;;;;;5.63;3.30;;;29.30;94.80;;;;;;5113751;28;20198;-80
2021/07/08 11:22:37;;;;;;;5.18;2.90;;;28.50;95.60;;;;;;5113601;28;20190;-81
2021/07/08 11:25:08;;;;;;;5.72;3.50;;;28.60;98.80;;;;;;5113267;28;20194;-81
2021/07/08 11:27:38;;;;;;;6.50;2.97;;;28.40;97.30;;;;;;5113858;28;20232;-79
2021/07/08 11:30:25;;;;;;;5.47;3.33;;;29.20;98.80;;;;;;5113511;28;20198;-81
2021/07/08 11:32:54;;;;;;;5.47;3.15;;;30.20;97.40;;;;;;5112893;28;20625;-82
2021/07/08 11:35:25;;;;;;;6.07;3.38;;;30.30;98.30;;;;;;5112861;28;20194;-80
2021/07/08 11:37:54;;;;;;;4.97;3.47;;;29.90;96.80;;;;;;5112822;28;20255;-80
2021/07/08 11:40:25;;;;;;;4.47;3.17;;;28.70;96.10;;;;;;5113676;28;20186;-81
2021/07/08 11:42:53;;;;;;;5.00;3.08;;;28.60;98.70;;;;;;5113612;28;20266;-81
2021/07/08 11:45:22;;;;;;;4.32;3.20;;;29.00;99.30;;;;;;5112526;28;20281;-80
2021/07/08 11:47:51;;;;;;;6.03;3.17;;;29.20;98.30;;;;;;5098753;28;20369;-79
2021/07/08 11:50:20;;;;;;;6.38;3.08;;;28.40;97.70;;;;;;5110022;28;20214;-80
2021/07/08 11:52:47;;;;;;;6.25;2.72;;;28.10;97.60;;;;;;5113128;28;20233;-80
2021/07/08 11:55:15;;;;;;;4.53;3.00;;;28.50;99.00;;;;;;5112329;28;20668;-79
2021/07/08 11:57:58;;;;;;;4.78;3.00;;;28.90;98.80;;;;;;5115120;28;20227;-81
2021/07/08 12:00:35;;;;;;;5.57;3.10;;;29.40;98.20;;;;;;5112056;28;20224;-80
2021/07/08 12:03:04;;;;;;;7.72;3.20;;;29.60;97.80;;;;;;5111372;28;20255;-82
2021/07/08 12:05:32;;;;;;;7.13;3.10;;;29.80;98.10;;;;;;5115780;28;20194;-79
2021/07/08 12:08:02;;;;;;;8.85;3.13;;;29.90;97.60;;;;;;5115475;28;20198;-81
2021/07/08 12:10:31;;;;;;;6.38;3.10;;;29.80;96.90;;;;;;5115285;28;20183;-79
2021/07/08 12:13:01;;;;;;;7.00;3.00;;;30.30;99.40;;;;;;5113941;28;20194;-79
2021/07/08 12:15:30;;;;;;;4.90;2.58;;;30.50;98.20;;;;;;5114492;28;20207;-78
2021/07/08 12:18:00;;;;;;;3.85;2.67;;;30.60;97.90;;;;;;5115841;28;20286;-79
2021/07/08 12:20:35;;;;;;;5.57;2.60;;;30.60;99.00;;;;;;5127510;28;20221;-82
2021/07/08 12:23:08;;;;;;;4.10;2.30;;;30.60;99.10;;;;;;5116227;28;20201;-81
2021/07/08 12:25:36;;;;;;;8.15;3.10;;;30.40;98.10;;;;;;5115072;28;20644;-80
2021/07/08 12:28:08;;;;;;;7.10;3.75;;;29.90;99.80;;;;;;5134908;28;20280;-79
2021/07/08 12:30:36;;;;;;;7.22;3.70;;;28.50;99.90;;;;;;5124203;28;20643;-81
2021/07/08 12:33:11;;;;;;;6.60;3.55;;;28.10;99.90;;;;;;5135592;28;20237;-80
2021/07/08 12:35:44;;;;;;;4.88;3.50;;;27.40;99.90;;;;;;5123155;28;20675;-81
2021/07/08 12:38:12;;;;;;;5.80;4.38;;;27.20;99.90;;;;;;5118352;28;20198;-81
2021/07/08 12:40:42;;;;;;;7.80;3.75;;;27.00;99.90;;;;;;5119439;28;20648;-81
2021/07/08 12:43:13;;;;;;;4.20;3.63;;;27.10;99.90;;;;;;5118611;28;20277;-81
2021/07/08 12:45:42;;;;;;;4.10;3.70;;;27.30;99.90;;;;;;5108258;28;20604;-79
2021/07/08 12:48:13;;;;;;;6.38;3.85;;;27.20;99.90;;;;;;5117647;28;20255;-79